Great Falls International Airport
KGTF : now visible

Airfield :











YOU CAN JOIN US ON...

 
LOGIN :

Register | Disclaimer

   EN    FR    IT 

 









Legend :    VFR   Marginal VFR   IFR   Intensive IFR   Very Intensive IFR
Visi :
Ceiling :
>= 8 km
>= 3000ft
5 to 8 km
1000 to 3000 ft
1500m to 5 km
500 to 1000 ft
800 to 1500m
200 to 500 ft
< 800m
< 200 ft
Symbols :   Thunderstorms  Fog  Heavy snow  Heavy precipitations  Wind > 20 kt






- Airport Elevation : 3680 ft
- IATA code : GTF


KGTF - Great Falls International

CURRENT METAR :
  • 291853Z 26007KT 10SM OVC024 M21/M24 A3042 RMK AO2 SLP410 T12061239 $

EXPIRED METARs :
  • 291831Z 26007KT 10SM BKN024 M20/M23 A3043 RMK AO2 T12001233 $
  • 291753Z 25006KT 10SM CLR M22/M24 A3043 RMK AO2 SLP413 60000 T12221239 11211 21261 51008 $
  • 291653Z 26008KT 10SM CLR M23/M25 A3043 RMK AO2 SLP413 T12281250 $
  • 291553Z 29005KT 10SM BKN037 M25/M27 A3042 RMK AO2 SLP416 T12501267 $

TAF KGTF
Valid from the 29 at 18:00 until the 30 at 18:00 UTC


291740Z 2918/3018 29008KT P6SM FEW130
FM300700 21016G26KT 6SM BLSN SCT250
FM301600 23013KT P6SM BKN050
KZLC FIR / North America



MET'MAP, your aeronautical weather chart ! - Copyright ORBIFLY December 2007 - Disclaimer

ORBIFLY MET'MAP TEAM :

Programming & Development : Alexandra Zaïnal
Original concept : Baudouin d'Aumeries
Technical & hardware support : Manuel Goepfert
Assistance : Marc-Olivier Méhu




SOURCES & CREDITS :

   NOAA       Earth
Advisory